createdAt,value
2023-03-27T00:00:37.091Z,10.00
2023-03-27T00:03:26.891Z,6.50
2023-03-27T00:06:11.424Z,5.60
2023-03-27T00:08:46.512Z,6.00
2023-03-27T00:11:21.991Z,7.40
2023-03-27T00:13:56.208Z,8.20
2023-03-27T00:16:32.134Z,6.40
2023-03-27T00:19:06.332Z,8.30
2023-03-27T00:21:40.596Z,6.40
2023-03-27T00:24:16.079Z,6.50
2023-03-27T00:26:50.234Z,7.50
2023-03-27T00:29:24.465Z,6.60
2023-03-27T00:31:58.624Z,8.60
2023-03-27T00:34:32.989Z,6.60
2023-03-27T00:37:07.555Z,5.90
2023-03-27T00:39:42.654Z,6.60
2023-03-27T00:42:23.045Z,7.40
2023-03-27T00:44:57.603Z,6.00
2023-03-27T00:47:37.546Z,6.90
2023-03-27T00:50:19.179Z,6.30
2023-03-27T00:52:59.619Z,6.70
2023-03-27T00:55:38.458Z,7.60
2023-03-27T00:58:19.121Z,10.40
2023-03-27T01:00:57.706Z,8.10
2023-03-27T01:03:35.086Z,7.30
2023-03-27T01:06:14.040Z,7.30
2023-03-27T01:08:50.121Z,7.80
2023-03-27T01:11:40.541Z,11.10
2023-03-27T01:14:26.910Z,9.60
2023-03-27T01:17:23.011Z,7.70
2023-03-27T01:20:32.639Z,9.60
2023-03-27T01:23:59.354Z,10.60
2023-03-27T01:29:40.864Z,9.10
2023-03-27T01:33:10.197Z,7.10
2023-03-27T01:36:26.078Z,9.30
2023-03-27T01:39:27.422Z,9.70
2023-03-27T01:42:22.055Z,8.00
2023-03-27T01:45:06.938Z,10.40
2023-03-27T01:47:54.003Z,9.30
2023-03-27T01:50:36.835Z,10.10
2023-03-27T01:53:19.402Z,9.30
2023-03-27T01:55:59.526Z,8.20
2023-03-27T01:58:41.718Z,10.30
2023-03-27T02:01:19.197Z,9.90
2023-03-27T02:03:58.930Z,11.20
2023-03-27T02:06:41.900Z,13.70
2023-03-27T02:09:24.081Z,13.40
2023-03-27T02:12:08.686Z,16.10
2023-03-27T02:14:53.001Z,16.80
2023-03-27T02:17:29.699Z,17.80
2023-03-27T02:20:11.834Z,17.00
2023-03-27T02:22:48.990Z,19.50
2023-03-27T02:25:35.966Z,19.10
2023-03-27T02:28:40.793Z,23.30
2023-03-27T02:31:38.791Z,24.20
2023-03-27T02:34:39.838Z,21.00
2023-03-27T02:37:32.294Z,20.00
2023-03-27T02:40:49.837Z,20.90
2023-03-27T02:43:56.126Z,22.80
2023-03-27T02:46:58.463Z,20.10
2023-03-27T02:49:38.933Z,21.30
2023-03-27T02:52:19.791Z,20.80
2023-03-27T02:55:06.292Z,20.40
2023-03-27T02:57:52.369Z,24.50
2023-03-27T03:00:54.720Z,25.00
2023-03-27T03:03:53.795Z,23.90
2023-03-27T03:06:46.892Z,23.60
2023-03-27T03:09:21.294Z,21.50
2023-03-27T03:11:58.126Z,26.30
2023-03-27T03:14:37.838Z,19.30
2023-03-27T03:17:12.169Z,21.20
2023-03-27T03:19:46.388Z,22.60
2023-03-27T03:22:20.749Z,18.50
2023-03-27T03:24:54.841Z,18.20
2023-03-27T03:27:34.292Z,20.30
2023-03-27T03:30:18.516Z,15.10
2023-03-27T03:33:05.901Z,13.50
2023-03-27T03:35:43.438Z,14.40
2023-03-27T03:38:26.649Z,18.90
2023-03-27T03:41:04.323Z,13.60
2023-03-27T03:43:38.776Z,16.90
2023-03-27T03:46:14.576Z,14.60
2023-03-27T03:48:49.049Z,13.00
2023-03-27T03:51:23.263Z,11.00
2023-03-27T03:53:57.661Z,12.80
2023-03-27T03:56:32.314Z,11.20
2023-03-27T03:59:06.572Z,11.90
2023-03-27T04:01:41.585Z,16.30
2023-03-27T04:04:16.048Z,12.70
2023-03-27T04:07:09.871Z,11.40
2023-03-27T04:09:48.056Z,7.80
2023-03-27T04:12:31.605Z,9.30
2023-03-27T04:15:09.977Z,11.40
2023-03-27T04:18:03.010Z,8.40
2023-03-27T04:20:37.373Z,9.10
2023-03-27T04:23:14.096Z,7.90
2023-03-27T04:25:49.402Z,8.70
2023-03-27T04:28:30.575Z,6.80
2023-03-27T04:31:14.342Z,8.20
2023-03-27T04:34:08.513Z,6.50
2023-03-27T04:37:02.681Z,9.30
2023-03-27T04:39:43.028Z,6.90
2023-03-27T04:42:18.274Z,5.90
2023-03-27T04:44:53.522Z,5.70
2023-03-27T04:47:27.866Z,10.60
2023-03-27T04:50:07.526Z,9.30
2023-03-27T04:52:44.174Z,6.00
2023-03-27T04:55:19.757Z,5.60
2023-03-27T04:57:56.783Z,6.40
2023-03-27T05:00:31.071Z,8.20
2023-03-27T05:03:26.146Z,8.10
2023-03-27T05:06:23.513Z,6.70
2023-03-27T05:08:58.025Z,7.10
2023-03-27T05:11:35.314Z,6.80
2023-03-27T05:14:09.824Z,9.80
2023-03-27T05:16:44.358Z,10.00
2023-03-27T05:19:19.506Z,10.90
2023-03-27T05:21:57.589Z,8.00
2023-03-27T05:24:31.723Z,8.40
2023-03-27T05:27:05.952Z,6.10
2023-03-27T05:29:46.420Z,9.50
2023-03-27T05:32:21.974Z,7.60
2023-03-27T05:35:00.208Z,9.00
2023-03-27T05:37:36.357Z,7.00
2023-03-27T05:40:31.516Z,8.30
2023-03-27T05:43:07.062Z,4.90
2023-03-27T05:45:41.408Z,5.80
2023-03-27T05:48:15.934Z,3.60
2023-03-27T05:50:52.102Z,3.00
2023-03-27T05:53:29.583Z,4.90
2023-03-27T05:56:18.925Z,3.30
2023-03-27T05:58:59.910Z,3.20
2023-03-27T06:01:35.972Z,4.00
2023-03-27T06:04:11.194Z,4.00
2023-03-27T06:07:03.994Z,3.00
2023-03-27T06:09:39.147Z,3.90
2023-03-27T06:12:59.017Z,5.90
2023-03-27T06:15:42.303Z,3.90
2023-03-27T06:18:27.490Z,4.30
2023-03-27T06:21:03.312Z,3.90
2023-03-27T06:23:37.552Z,4.10
2023-03-27T06:26:17.091Z,3.60
2023-03-27T06:28:51.320Z,3.20
2023-03-27T06:31:25.952Z,4.90
2023-03-27T06:34:22.933Z,3.70
2023-03-27T06:37:03.703Z,5.20
2023-03-27T06:39:44.290Z,3.80
2023-03-27T06:42:18.814Z,7.80
2023-03-27T06:44:59.529Z,4.50
2023-03-27T06:48:12.121Z,4.90
2023-03-27T06:50:54.217Z,6.00
2023-03-27T06:53:31.158Z,5.40
2023-03-27T06:56:10.866Z,4.50
2023-03-27T06:59:09.252Z,5.20
2023-03-27T07:01:46.396Z,8.50
2023-03-27T07:04:54.259Z,6.80
2023-03-27T07:07:49.350Z,6.40
2023-03-27T07:10:26.057Z,9.60
2023-03-27T07:13:01.547Z,11.80
2023-03-27T07:15:36.305Z,6.30
2023-03-27T07:18:12.593Z,5.50
2023-03-27T07:20:54.930Z,7.00
2023-03-27T07:23:30.585Z,8.00
2023-03-27T07:26:11.531Z,10.00
2023-03-27T07:29:20.283Z,6.30
2023-03-27T07:32:01.522Z,10.30
2023-03-27T07:35:05.509Z,8.20
2023-03-27T07:38:13.672Z,6.70
2023-03-27T07:41:09.390Z,6.80
2023-03-27T07:44:02.617Z,6.80
2023-03-27T07:46:52.117Z,6.50
2023-03-27T07:49:38.849Z,5.00
2023-03-27T07:52:16.560Z,5.00
2023-03-27T07:54:59.163Z,5.30
2023-03-27T07:57:59.876Z,4.40
2023-03-27T08:00:36.904Z,5.30
2023-03-27T08:03:17.829Z,5.60
2023-03-27T08:06:01.335Z,5.70
2023-03-27T08:08:37.950Z,4.90
2023-03-27T08:11:27.196Z,4.90
2023-03-27T08:14:04.995Z,5.20
2023-03-27T08:16:40.353Z,3.50
2023-03-27T08:19:18.802Z,6.00
2023-03-27T08:21:55.464Z,3.70
2023-03-27T08:24:29.781Z,4.80
2023-03-27T08:27:21.160Z,4.60
2023-03-27T08:29:55.694Z,4.00
2023-03-27T08:32:31.941Z,4.30
2023-03-27T08:35:13.718Z,3.20
2023-03-27T08:37:48.251Z,4.70
2023-03-27T08:40:39.912Z,4.90
2023-03-27T08:43:47.671Z,4.60
2023-03-27T08:46:31.784Z,6.00
2023-03-27T08:49:15.037Z,5.70
2023-03-27T08:51:57.794Z,3.60
2023-03-27T08:54:35.402Z,4.20
2023-03-27T08:57:23.436Z,3.40
2023-03-27T09:00:08.677Z,4.40
2023-03-27T09:02:53.810Z,4.00
2023-03-27T09:05:42.812Z,7.10
2023-03-27T09:08:35.886Z,3.20
2023-03-27T09:11:28.668Z,4.40
2023-03-27T09:14:20.330Z,5.50
2023-03-27T09:16:56.922Z,4.50
2023-03-27T09:19:48.172Z,5.40
2023-03-27T09:22:30.443Z,5.30
2023-03-27T09:25:36.997Z,4.80
2023-03-27T09:28:51.098Z,5.50
2023-03-27T09:31:34.740Z,5.30
2023-03-27T09:34:21.146Z,5.20
2023-03-27T09:36:56.167Z,5.40
2023-03-27T09:39:37.154Z,4.70
2023-03-27T09:42:37.288Z,5.60
2023-03-27T09:45:16.355Z,3.20
2023-03-27T09:48:07.456Z,5.60
2023-03-27T09:50:50.296Z,5.70
2023-03-27T09:53:39.977Z,3.60
2023-03-27T09:56:22.711Z,6.60
2023-03-27T09:58:59.265Z,5.10
2023-03-27T10:01:37.340Z,4.30
2023-03-27T10:04:23.569Z,3.30
2023-03-27T10:07:08.571Z,4.20
2023-03-27T10:10:16.021Z,4.80
2023-03-27T10:13:16.731Z,5.20
2023-03-27T10:16:01.931Z,6.30
2023-03-27T10:18:49.808Z,4.00
2023-03-27T10:21:33.405Z,5.70
2023-03-27T10:24:23.322Z,4.80
2023-03-27T10:27:32.559Z,4.70
2023-03-27T10:30:38.125Z,4.20
2023-03-27T10:33:39.881Z,4.40
2023-03-27T10:36:28.570Z,3.80
2023-03-27T10:39:13.059Z,5.40
2023-03-27T10:42:16.174Z,4.80
2023-03-27T10:44:57.724Z,4.60
2023-03-27T10:47:37.854Z,4.40
2023-03-27T10:50:21.214Z,7.00
2023-03-27T10:53:09.439Z,5.10
2023-03-27T10:56:03.017Z,3.20
2023-03-27T10:58:48.814Z,3.00
2023-03-27T11:01:32.307Z,3.30
2023-03-27T11:04:16.626Z,4.50
2023-03-27T11:07:00.005Z,3.70
2023-03-27T11:09:42.696Z,5.00
2023-03-27T11:12:23.418Z,5.50
2023-03-27T11:15:09.238Z,4.70
2023-03-27T11:17:59.707Z,3.50
2023-03-27T11:20:57.117Z,4.50
2023-03-27T11:23:50.967Z,5.60
2023-03-27T11:26:51.428Z,3.00
2023-03-27T11:29:37.100Z,3.50
2023-03-27T11:32:28.750Z,2.80
2023-03-27T11:35:13.599Z,4.50
2023-03-27T11:38:06.430Z,3.00
2023-03-27T11:41:00.983Z,3.70
2023-03-27T11:43:39.535Z,3.60
2023-03-27T11:46:39.209Z,3.90
2023-03-27T11:49:37.298Z,2.90
2023-03-27T11:52:30.922Z,3.40
2023-03-27T11:55:23.188Z,3.30
2023-03-27T11:58:17.398Z,2.70
2023-03-27T12:01:08.461Z,3.70
2023-03-27T12:04:12.573Z,3.30
2023-03-27T12:07:15.378Z,3.20
2023-03-27T12:10:08.303Z,3.30
2023-03-27T12:14:01.002Z,4.50
2023-03-27T12:17:35.773Z,6.10
2023-03-27T12:20:41.629Z,4.10
2023-03-27T12:23:57.578Z,3.50
2023-03-27T12:27:23.396Z,4.10
2023-03-27T12:30:27.146Z,4.30
2023-03-27T12:33:26.653Z,3.30
2023-03-27T12:36:05.786Z,4.70
2023-03-27T12:38:45.136Z,3.90
2023-03-27T12:41:26.796Z,3.00
2023-03-27T12:44:32.351Z,3.20
2023-03-27T12:47:26.151Z,3.90
2023-03-27T12:50:37.029Z,3.50
2023-03-27T12:53:42.079Z,3.60
2023-03-27T12:56:41.320Z,3.40
2023-03-27T12:59:28.656Z,3.30
2023-03-27T13:02:47.797Z,4.00
2023-03-27T13:06:05.349Z,4.40
2023-03-27T13:09:10.920Z,3.80
2023-03-27T13:12:17.680Z,4.10
2023-03-27T13:15:36.152Z,5.50
2023-03-27T13:18:44.764Z,3.00
2023-03-27T13:21:30.251Z,3.60
2023-03-27T13:24:34.861Z,4.90
2023-03-27T13:27:37.328Z,5.20
2023-03-27T13:30:51.543Z,3.00
2023-03-27T13:34:09.642Z,4.00
2023-03-27T13:37:05.887Z,5.60
2023-03-27T13:40:08.040Z,3.30
2023-03-27T13:42:49.772Z,4.50
2023-03-27T13:45:39.118Z,3.30
2023-03-27T13:49:20.763Z,3.60
2023-03-27T13:52:47.477Z,3.90
2023-03-27T13:55:44.621Z,4.50
2023-03-27T14:03:17.257Z,3.40
2023-03-27T14:06:38.475Z,4.10
2023-03-27T14:09:26.838Z,3.10
2023-03-27T14:12:26.959Z,4.30
2023-03-27T14:15:47.972Z,3.70
2023-03-27T14:19:21.919Z,3.70
2023-03-27T14:22:02.456Z,6.80
2023-03-27T14:24:44.849Z,3.40
2023-03-27T14:27:30.364Z,3.80
2023-03-27T14:30:22.112Z,3.20
2023-03-27T14:33:11.134Z,3.90
2023-03-27T14:35:54.074Z,2.90
2023-03-27T14:38:33.743Z,4.10
2023-03-27T14:41:18.945Z,2.90
2023-03-27T14:44:04.118Z,3.30
2023-03-27T14:46:45.198Z,4.50
2023-03-27T14:49:24.746Z,2.90
2023-03-27T14:52:08.211Z,3.00
2023-03-27T14:55:01.627Z,3.90
2023-03-27T14:57:41.488Z,4.00
2023-03-27T15:00:25.893Z,4.80
2023-03-27T15:03:05.459Z,5.10
2023-03-27T15:05:57.541Z,4.00
2023-03-27T15:08:40.342Z,4.10
2023-03-27T15:11:24.203Z,4.90
2023-03-27T15:14:03.880Z,3.70
2023-03-27T15:16:41.443Z,4.40
2023-03-27T15:19:32.240Z,4.60
2023-03-27T15:22:13.432Z,3.40
2023-03-27T15:24:54.076Z,5.10
2023-03-27T15:27:35.337Z,5.80
2023-03-27T15:30:27.144Z,4.20
2023-03-27T15:33:04.572Z,4.40
2023-03-27T15:35:42.069Z,4.40
2023-03-27T15:38:20.046Z,3.30
2023-03-27T15:41:24.823Z,3.10
2023-03-27T15:44:07.281Z,4.00
2023-03-27T15:46:54.414Z,3.40
2023-03-27T15:49:37.166Z,3.60
2023-03-27T15:52:33.193Z,3.30
2023-03-27T15:55:08.168Z,3.80
2023-03-27T15:57:43.941Z,5.20
2023-03-27T16:00:20.370Z,3.10
2023-03-27T16:02:54.802Z,3.50
2023-03-27T16:05:29.427Z,3.30
2023-03-27T16:08:03.910Z,4.30
2023-03-27T16:10:39.008Z,4.40
2023-03-27T16:13:30.224Z,3.60
2023-03-27T16:16:20.868Z,5.40
2023-03-27T16:18:55.389Z,3.70
2023-03-27T16:21:36.292Z,4.70
2023-03-27T16:24:11.447Z,3.90
2023-03-27T16:26:45.844Z,4.70
2023-03-27T16:29:21.596Z,2.90
2023-03-27T16:31:56.115Z,4.20
2023-03-27T16:34:30.852Z,6.10
2023-03-27T16:37:05.167Z,4.00
2023-03-27T16:39:39.564Z,3.60
2023-03-27T16:42:18.904Z,3.90
2023-03-27T16:44:54.039Z,3.40
2023-03-27T16:47:28.230Z,3.90
2023-03-27T16:50:11.416Z,3.90
2023-03-27T16:52:46.141Z,4.40
2023-03-27T16:55:20.908Z,4.70
2023-03-27T16:58:00.258Z,4.10
2023-03-27T17:00:34.755Z,6.10
2023-03-27T17:03:09.179Z,5.70
2023-03-27T17:05:44.241Z,5.90
2023-03-27T17:08:19.010Z,5.50
2023-03-27T17:10:53.477Z,4.00
2023-03-27T17:13:27.924Z,4.50
2023-03-27T17:16:02.062Z,4.80
2023-03-27T17:18:37.065Z,4.70
2023-03-27T17:21:11.887Z,5.80
2023-03-27T17:23:48.422Z,4.10
2023-03-27T17:26:29.914Z,6.80
2023-03-27T17:29:06.197Z,5.00
2023-03-27T17:31:41.520Z,3.40
2023-03-27T17:34:16.131Z,4.40
2023-03-27T17:36:54.474Z,4.40
2023-03-27T17:39:29.323Z,4.50
2023-03-27T17:42:04.012Z,4.80
2023-03-27T17:44:39.875Z,4.70
2023-03-27T17:47:14.375Z,4.30
2023-03-27T17:49:48.667Z,6.00
2023-03-27T17:52:23.643Z,6.40
2023-03-27T17:54:59.829Z,7.80
2023-03-27T17:57:34.514Z,8.50
2023-03-27T18:00:15.694Z,7.20
2023-03-27T18:02:50.193Z,8.80
2023-03-27T18:05:26.004Z,8.60
2023-03-27T18:08:01.302Z,12.20
2023-03-27T18:10:36.407Z,9.60
2023-03-27T18:13:10.990Z,10.10
2023-03-27T18:15:46.987Z,7.60
2023-03-27T18:18:21.143Z,10.20
2023-03-27T18:20:56.693Z,8.50
2023-03-27T18:23:31.503Z,10.10
2023-03-27T18:26:08.486Z,11.80
2023-03-27T18:28:43.193Z,7.40
2023-03-27T18:31:17.923Z,9.50
2023-03-27T18:33:52.591Z,11.30
2023-03-27T18:36:27.442Z,9.10
2023-03-27T18:39:01.675Z,8.70
2023-03-27T18:41:38.200Z,11.10
2023-03-27T18:44:13.823Z,10.30
2023-03-27T18:46:49.154Z,7.10
2023-03-27T18:49:25.271Z,10.40
2023-03-27T18:52:00.030Z,10.30
2023-03-27T18:54:34.881Z,9.40
2023-03-27T18:57:11.307Z,10.20
2023-03-27T18:59:46.334Z,10.60
2023-03-27T19:02:21.482Z,10.70
2023-03-27T19:04:56.235Z,12.10
2023-03-27T19:07:30.930Z,17.50
2023-03-27T19:10:06.559Z,19.70
2023-03-27T19:12:43.388Z,23.40
2023-03-27T19:15:46.999Z,18.90
2023-03-27T19:18:44.182Z,17.20
2023-03-27T19:21:26.964Z,24.80
2023-03-27T19:24:12.689Z,17.10
2023-03-27T19:26:50.317Z,17.90
2023-03-27T19:29:25.883Z,16.10
2023-03-27T19:32:00.790Z,13.80
2023-03-27T19:34:42.489Z,14.20
2023-03-27T19:37:18.170Z,14.50
2023-03-27T19:39:52.592Z,15.20
2023-03-27T19:42:28.566Z,15.60
2023-03-27T19:45:03.446Z,14.40
2023-03-27T19:47:38.187Z,14.30
2023-03-27T19:50:14.685Z,16.40
2023-03-27T19:53:08.096Z,13.80
2023-03-27T19:55:44.812Z,15.50
2023-03-27T19:58:19.672Z,18.00
2023-03-27T20:00:54.791Z,16.00
2023-03-27T20:03:29.570Z,15.30
2023-03-27T20:06:06.791Z,22.60
2023-03-27T20:08:42.617Z,28.10
2023-03-27T20:11:20.451Z,37.40
2023-03-27T20:13:57.052Z,150.60
2023-03-27T20:16:32.585Z,154.90
2023-03-27T20:19:07.348Z,64.00
2023-03-27T20:21:43.733Z,72.50
2023-03-27T20:24:20.101Z,62.50
2023-03-27T20:26:58.443Z,64.20
2023-03-27T20:29:33.091Z,47.10
2023-03-27T20:32:08.831Z,33.40
2023-03-27T20:34:46.186Z,30.40
2023-03-27T20:37:21.993Z,25.80
2023-03-27T20:40:11.732Z,26.90
2023-03-27T20:42:48.296Z,30.70
2023-03-27T20:45:26.822Z,25.70
2023-03-27T20:48:04.353Z,20.30
2023-03-27T20:50:43.310Z,22.20
2023-03-27T20:53:19.062Z,19.40
2023-03-27T20:56:00.115Z,29.30
2023-03-27T20:58:40.549Z,31.20
2023-03-27T21:01:19.565Z,26.50
2023-03-27T21:03:58.365Z,26.90
2023-03-27T21:06:32.870Z,20.00
2023-03-27T21:09:08.034Z,27.20
2023-03-27T21:11:42.562Z,22.90
2023-03-27T21:14:16.695Z,18.60
2023-03-27T21:16:50.918Z,15.60
2023-03-27T21:19:27.530Z,16.00
2023-03-27T21:22:02.723Z,14.70
2023-03-27T21:24:37.247Z,17.50
2023-03-27T21:27:11.556Z,19.80
2023-03-27T21:29:45.982Z,14.60
2023-03-27T21:32:20.342Z,14.00
2023-03-27T21:34:54.510Z,9.30
2023-03-27T21:37:28.775Z,13.00
2023-03-27T21:40:04.864Z,12.20
2023-03-27T21:42:39.367Z,7.10
2023-03-27T21:45:14.536Z,9.00
2023-03-27T21:47:51.133Z,7.70
2023-03-27T21:50:25.592Z,6.90
2023-03-27T21:53:00.124Z,6.70
2023-03-27T21:55:34.925Z,9.70
2023-03-27T21:58:09.739Z,9.40
2023-03-27T22:00:45.556Z,13.40
2023-03-27T22:03:19.800Z,12.90
2023-03-27T22:06:07.972Z,14.30
2023-03-27T22:08:46.682Z,12.30
2023-03-27T22:11:21.038Z,9.80
2023-03-27T22:13:55.727Z,7.70
2023-03-27T22:16:30.186Z,11.00
2023-03-27T22:19:04.489Z,6.80
2023-03-27T22:21:38.800Z,7.50
2023-03-27T22:24:13.335Z,8.90
2023-03-27T22:26:47.454Z,6.00
2023-03-27T22:29:21.594Z,7.50
2023-03-27T22:31:55.745Z,8.50
2023-03-27T22:34:30.334Z,7.30
2023-03-27T22:37:04.432Z,6.60
2023-03-27T22:39:38.561Z,11.00
2023-03-27T22:42:12.796Z,8.80
2023-03-27T22:44:46.845Z,10.50
2023-03-27T22:47:22.734Z,8.10
2023-03-27T22:49:56.816Z,9.90
2023-03-27T22:52:31.051Z,10.80
2023-03-27T22:55:06.012Z,11.50
2023-03-27T22:57:41.749Z,8.20
2023-03-27T23:00:19.204Z,9.70
2023-03-27T23:02:53.470Z,9.30
2023-03-27T23:05:27.665Z,7.00
2023-03-27T23:08:01.853Z,8.40
2023-03-27T23:10:36.385Z,9.50
2023-03-27T23:13:11.416Z,9.80
2023-03-27T23:15:46.176Z,6.10
2023-03-27T23:18:23.814Z,8.70
2023-03-27T23:21:04.303Z,7.90
2023-03-27T23:23:41.515Z,8.20
2023-03-27T23:26:18.243Z,8.60
2023-03-27T23:28:52.293Z,8.00
2023-03-27T23:31:26.843Z,8.40
2023-03-27T23:34:01.026Z,8.00
2023-03-27T23:36:35.084Z,7.50
2023-03-27T23:39:09.485Z,7.40
2023-03-27T23:41:43.583Z,6.30
2023-03-27T23:44:17.668Z,4.50
2023-03-27T23:46:51.698Z,6.80
2023-03-27T23:49:25.796Z,16.10
2023-03-27T23:51:59.850Z,5.80
2023-03-27T23:54:33.945Z,6.20
2023-03-27T23:57:08.482Z,4.70
2023-03-27T23:59:42.494Z,4.30
